Terminal Aerodrome Forecast
Issued by NWS Charleston, WV

Home | Current Version | Previous Version | Text Only | Print | Product List | Glossary On
Versions: 1 2 3 4 5 6 7 8 9 10 11 12 13 14 15 16 17 18 19
684
FTUS41 KRLX 091757 RRA
TAFPKB
TAF
KPKB 091757Z 0918/1018 25009G18KT 4SM -SHSN OVC020
      TEMPO 0918/0922 2SM -SHSN BR OVC012
     FM092200 26010G15KT 5SM -SHSN OVC025
     FM100300 27009KT 5SM -SHSN OVC015
     FM101500 25010KT 6SM -SHSN BKN020=

USA.gov is the U.S. government's official web portal to all federal, state and local government web resources and services.